Flight Track Log - Related Links

Times and Time Zones

All times are in EDT time to prevent confusion due to time zone crossing. See the UAL4191 flight status page for this flight to view local times or setup timezone preferences in your user account.

Time Position Orientation Groundspeed Altitude Reporting Facility
EDT Latitude Longitude Course Direction KTS MPH feet Rate Location/Type
Fri 10:44:53 AM 32.8333 -96.8333 140° Southeast 155 178 1,300  Level Dallas / Fort Worth TRACON
Fri 10:45:53 AM 32.8000 -96.8000 140° Southeast 187 215 3,100 1,842 Climbing Dallas / Fort Worth TRACON
Fri 10:46:47 AM 32.7500 -96.7667 151° Southeast 236 272 4,800 2,087 Climbing Dallas / Fort Worth TRACON
Fri 10:47:48 AM 32.7000 -96.7500 164° South 240 276 7,100 1,636 Climbing Dallas / Fort Worth TRACON
Fri 10:49:43 AM 32.5689 -96.7847 193° South 240 276 9,600 1,269 Climbing Fort Worth Center
Fri 10:50:43 AM 32.5042 -96.8025 193° South 255 293 10,800 1,100 Climbing Fort Worth Center
Fri 10:51:43 AM 32.4144 -96.8203 189° South 291 335 11,800 1,000 Climbing Fort Worth Center
Fri 10:52:43 AM 32.3289 -96.8158 177° South 326 375 12,800 1,550 Climbing Fort Worth Center
Fri 10:53:43 AM 32.2306 -96.7847 165° South 337 388 14,900 2,017 Climbing Fort Worth Center
Fri 10:54:42 AM 32.1511 -96.7483 159° South 342 394 16,800 1,462 Climbing Fort Worth Center
Fri 10:55:42 AM 32.0547 -96.7122 162° South 337 388 17,800 893 Climbing Fort Worth Center
Fri 10:56:43 AM 31.9586 -96.6739 161° South 349 402 18,600 1,000 Climbing Fort Worth Center
Fri 10:57:42 AM 31.8581 -96.6356 162° South 367 422 19,800 1,150 Climbing Fort Worth Center
Fri 10:58:43 AM 31.7536 -96.5997 164° South 383 441 20,900 595 Climbing Fort Worth Center
Fri 10:59:43 AM 31.6447 -96.5544 161° South 400 460 21,000 57 Climbing Fort Worth Center
Fri 11:00:29 AM 31.5692 -96.5258 162° South 418 481 21,000  Level Houston Center
Fri 11:01:31 AM 31.4481 -96.4778 161° South 429 494 21,000  Level Houston Center
Fri 11:02:33 AM 31.3389 -96.4356 162° South 430 495 21,000  Level Houston Center
Fri 11:03:35 AM 31.2267 -96.3925 162° South 423 487 21,000  Level Houston Center
Fri 11:04:37 AM 31.1206 -96.3525 162° South 350 403 21,000  Level Houston Center
Fri 11:05:39 AM 31.0211 -96.3242 166° South 356 410 21,000 -145 Level Houston Center
Fri 11:06:41 AM 30.9208 -96.2844 161° South 369 425 20,700 -864 Descending Houston Center
Fri 11:07:44 AM 30.8272 -96.2161 148° Southeast 395 455 19,200 -1,680 Descending Houston Center
Fri 11:08:46 AM 30.7322 -96.1475 148° Southeast 395 455 17,200 -2,388 Descending Houston Center
Fri 11:09:27 AM 30.6642 -96.0958 147° Southeast 393 452 15,100 -2,710 Descending Houston Center
Fri 11:09:48 AM 30.6439 -96.0739 137° Southeast 387 445 14,400 -2,512 Descending Houston Center
Fri 11:10:10 AM 30.6089 -96.0389 139° Southeast 373 429 13,300 -2,710 Descending Houston Center
Fri 11:10:50 AM 30.5583 -95.9819 136° Southeast 368 423 11,600 -2,754 Descending Houston Center
Fri 11:11:11 AM 30.5308 -95.9583 144° Southeast 356 410 10,500 -1,548 Descending Houston Center
Fri 11:11:52 AM 30.4892 -95.9078 134° Southeast 345 397 10,000 -492 Descending Houston Center
Fri 11:12:12 AM 30.4678 -95.8856 138° Southeast 286 329 10,000 97 Level Houston Center
Fri 11:12:54 AM 30.4314 -95.8444 136° Southeast 293 337 10,100  Climbing Houston Center
Fri 11:13:13 AM 30.4097 -95.8219 138° Southeast 287 330 10,000 -677 Descending Houston Center
Fri 11:13:56 AM 30.3706 -95.7858 141° Southeast 285 328 9,400 -1,075 Descending Houston Center
Fri 11:14:59 AM 30.3014 -95.7928 185° South 254 292 8,100 -672 Descending Houston Center
Fri 11:16:01 AM 30.2436 -95.8061 191° South 222 255 8,000 -48 Descending Houston Center
Fri 11:17:03 AM 30.1719 -95.8092 182° South 215 247 8,000 -242 Level Houston Center
Fri 11:18:05 AM 30.1167 -95.8311 199° South 219 252 7,500 -462 Descending Houston Center
Fri 11:19:13 AM 30.0569 -95.8678 208° Southwest 182 209 7,000 -323 Descending Houston Center
Fri 11:20:15 AM 30.0125 -95.8633 175° South 196 226 6,800 -407 Descending Houston Center
Fri 11:21:11 AM 29.9939 -95.8206 117° Southeast 197 227 6,200 -407 Descending Houston Center
Fri 11:22:13 AM 29.9914 -95.7583 93° East 197 227 6,000 -336 Descending Houston Center
Fri 11:23:16 AM 29.9922 -95.6789 89° East 206 237 5,500 -720 Descending Houston Center
Fri 11:24:18 AM 29.9933 -95.6175 89° East 197 227 4,500 -1,008 Descending Houston Center
Fri 11:25:27 AM 29.9928 -95.5472 91° East 183 211 3,300 -968 Descending Houston Center
Fri 11:26:22 AM 29.9939 -95.5006 88° East 184 212 2,500 -931 Descending Houston Center
Fri 11:27:23 AM 29.9936 -95.4386 90° East 169 194 1,500 -829 Descending Houston Center
Fri 11:28:25 AM 29.9936 -95.3953 90° East 131 151 800 -528 Descending Houston Center
Fri 11:29:28 AM 29.9947 -95.3572 88° East 144 166 400 -381 Descending Houston Center

Login

Don't have an account? Register now (free) for customized features, flight alerts, and more!